Portada
METAR-TAF:

METAR-TAF

Aeroports :

Aeroport Internacional d'Osaka

Osaka, Japó

latitud: 34-47N, longitud: 135-27E, altitud: 12 m

Observació

L'informe es va fer fa 39 minuts, a les 08:00 UTC
Vent 8 kt del Nord
Temperatura 17°C
Humitat 52%
Pressió 1019 hPa
Visibilitat 10 km o més
Escasses núvols a una alçada de 3000 ft

METAR: RJOO 120800Z 35008KT 9999 FEW030 17/07 Q1019 RMK 1CU030 A3009

Hora: 17:39 (08:39 UTC)

Pronòstic

L'informe es va fer fa 3 hores i 33 minuts, a les 05:06 UTC
Pronòstic vàlid del 12 a les 06 UTC al 13 a les 12 UTC
Vent 8 kt del Nord/Nord-Oest
Visibilitat 10 km o més
Escasses núvols a una alçada de 3000 ft
Núvols disperses a una alçada de 4000 ft
Evolucionant progressivament
l' 13 a les 00 UTC al 13 a les 03 UTC
Vent 4 kt del Est

TAF: RJOO 120506Z 1206/1312 34008KT 9999 FEW030 SCT040 BECMG 1300/1303 08004KT

Observacions i pronòstics meteorològics de més de 4000 aeroports (METAR i TAF).

Les estacions disponibles són els punts grocs i vermells al mapa.

Posi el ratolí al punt desitjat per veure el nom de l'estació.

Feu clic per veure les observacions i els pronòstics meteorològics.

Per canviar el mapa: feu clic els botons verds amb una creu de color negre per apropar; al botó verd amb un guió per allunyar la imatge; o en les fletxes verdes per a mapes adjacents.


METAR-TAF: